sensor_id;sensor_type;location;lat;lon;timestamp;pressure;altitude;pressure_sealevel;temperature;humidity
80321;BME280;69633;47.066;15.450;2023-11-22T00:02:11;97443.56;;;6.08;82.69
80321;BME280;69633;47.066;15.450;2023-11-22T00:04:36;97443.63;;;5.94;83.15
80321;BME280;69633;47.066;15.450;2023-11-22T00:07:02;97445.91;;;5.87;83.85
80321;BME280;69633;47.066;15.450;2023-11-22T00:09:28;97446.97;;;5.86;83.42
80321;BME280;69633;47.066;15.450;2023-11-22T00:11:53;97441.63;;;5.77;84.33
80321;BME280;69633;47.066;15.450;2023-11-22T00:14:18;97445.75;;;5.70;84.18
80321;BME280;69633;47.066;15.450;2023-11-22T00:16:44;97440.91;;;5.63;83.68
80321;BME280;69633;47.066;15.450;2023-11-22T00:19:10;97442.81;;;5.49;83.62
80321;BME280;69633;47.066;15.450;2023-11-22T00:21:35;97438.25;;;5.41;84.26
80321;BME280;69633;47.066;15.450;2023-11-22T00:24:01;97435.16;;;5.39;83.64
80321;BME280;69633;47.066;15.450;2023-11-22T00:26:26;97437.22;;;5.28;83.42
80321;BME280;69633;47.066;15.450;2023-11-22T00:28:51;97434.09;;;5.26;84.20
80321;BME280;69633;47.066;15.450;2023-11-22T00:31:19;97428.75;;;5.18;84.22
80321;BME280;69633;47.066;15.450;2023-11-22T00:33:44;97434.91;;;5.13;84.45
80321;BME280;69633;47.066;15.450;2023-11-22T00:36:10;97439.69;;;5.11;84.31
80321;BME280;69633;47.066;15.450;2023-11-22T00:38:35;97431.00;;;5.11;84.57
80321;BME280;69633;47.066;15.450;2023-11-22T00:41:02;97439.88;;;5.15;84.37
80321;BME280;69633;47.066;15.450;2023-11-22T00:43:28;97439.78;;;5.20;84.95
80321;BME280;69633;47.066;15.450;2023-11-22T00:45:53;97444.72;;;5.21;83.98
80321;BME280;69633;47.066;15.450;2023-11-22T00:48:19;97455.38;;;5.16;83.74
80321;BME280;69633;47.066;15.450;2023-11-22T00:50:44;97452.66;;;5.08;83.37
80321;BME280;69633;47.066;15.450;2023-11-22T00:53:10;97446.22;;;5.00;83.67
80321;BME280;69633;47.066;15.450;2023-11-22T00:55:35;97454.81;;;4.92;83.53
80321;BME280;69633;47.066;15.450;2023-11-22T00:58:01;97451.69;;;4.90;84.08
80321;BME280;69633;47.066;15.450;2023-11-22T01:00:30;97456.47;;;4.88;84.05
80321;BME280;69633;47.066;15.450;2023-11-22T01:02:55;97444.88;;;4.89;83.51
80321;BME280;69633;47.066;15.450;2023-11-22T01:05:21;97448.47;;;4.93;83.66
80321;BME280;69633;47.066;15.450;2023-11-22T01:07:48;97449.53;;;4.92;83.29
80321;BME280;69633;47.066;15.450;2023-11-22T01:10:13;97451.69;;;4.90;83.62
80321;BME280;69633;47.066;15.450;2023-11-22T01:12:41;97465.31;;;4.92;83.33
80321;BME280;69633;47.066;15.450;2023-11-22T01:15:07;97459.47;;;4.95;83.33
80321;BME280;69633;47.066;15.450;2023-11-22T01:17:34;97459.38;;;5.00;83.29
80321;BME280;69633;47.066;15.450;2023-11-22T01:20:00;97468.06;;;5.01;83.30
80321;BME280;69633;47.066;15.450;2023-11-22T01:22:25;97474.19;;;4.96;82.55
80321;BME280;69633;47.066;15.450;2023-11-22T01:24:51;97463.09;;;4.85;82.93
80321;BME280;69633;47.066;15.450;2023-11-22T01:27:16;97474.38;;;4.86;82.61
80321;BME280;69633;47.066;15.450;2023-11-22T01:29:42;97468.34;;;4.85;82.66
80321;BME280;69633;47.066;15.450;2023-11-22T01:32:08;97470.28;;;4.80;83.04
80321;BME280;69633;47.066;15.450;2023-11-22T01:34:34;97467.88;;;4.83;82.78
80321;BME280;69633;47.066;15.450;2023-11-22T01:37:00;97480.25;;;4.83;83.04
80321;BME280;69633;47.066;15.450;2023-11-22T01:39:25;97476.03;;;4.82;82.92
80321;BME280;69633;47.066;15.450;2023-11-22T01:41:52;97479.47;;;4.82;83.22
80321;BME280;69633;47.066;15.450;2023-11-22T01:44:17;97477.00;;;4.72;82.81
80321;BME280;69633;47.066;15.450;2023-11-22T01:46:46;97469.41;;;4.71;82.75
80321;BME280;69633;47.066;15.450;2023-11-22T01:49:11;97474.69;;;4.71;84.30
80321;BME280;69633;47.066;15.450;2023-11-22T01:51:39;97481.88;;;4.65;82.45
80321;BME280;69633;47.066;15.450;2023-11-22T01:54:06;97478.75;;;4.50;82.35
80321;BME280;69633;47.066;15.450;2023-11-22T01:56:32;97475.22;;;4.41;82.80
80321;BME280;69633;47.066;15.450;2023-11-22T01:59:00;97478.13;;;4.39;82.90
80321;BME280;69633;47.066;15.450;2023-11-22T02:01:26;97483.19;;;4.35;83.01
80321;BME280;69633;47.066;15.450;2023-11-22T02:03:52;97478.53;;;4.32;82.86
80321;BME280;69633;47.066;15.450;2023-11-22T02:06:19;97480.16;;;4.28;82.99
80321;BME280;69633;47.066;15.450;2023-11-22T02:08:44;97485.53;;;4.23;83.14
80321;BME280;69633;47.066;15.450;2023-11-22T02:11:10;97490.00;;;4.36;86.31
80321;BME280;69633;47.066;15.450;2023-11-22T02:13:36;97488.75;;;4.48;84.52
80321;BME280;69633;47.066;15.450;2023-11-22T02:16:02;97501.69;;;4.44;83.17
80321;BME280;69633;47.066;15.450;2023-11-22T02:18:29;97485.56;;;4.51;83.91
80321;BME280;69633;47.066;15.450;2023-11-22T02:20:55;97498.81;;;4.59;82.82
80321;BME280;69633;47.066;15.450;2023-11-22T02:23:21;97507.34;;;4.51;82.16
80321;BME280;69633;47.066;15.450;2023-11-22T02:25:47;97517.28;;;4.41;82.69
80321;BME280;69633;47.066;15.450;2023-11-22T02:28:12;97511.94;;;4.46;83.37
80321;BME280;69633;47.066;15.450;2023-11-22T02:30:39;97516.69;;;4.44;82.27
80321;BME280;69633;47.066;15.450;2023-11-22T02:33:04;97517.75;;;4.43;82.55
80321;BME280;69633;47.066;15.450;2023-11-22T02:35:30;97517.06;;;4.37;82.41
80321;BME280;69633;47.066;15.450;2023-11-22T02:37:58;97512.00;;;4.41;83.76
80321;BME280;69633;47.066;15.450;2023-11-22T02:40:24;97519.22;;;4.49;84.04
80321;BME280;69633;47.066;15.450;2023-11-22T02:42:51;97517.38;;;4.49;81.97
80321;BME280;69633;47.066;15.450;2023-11-22T02:45:20;97520.38;;;4.43;81.63
80321;BME280;69633;47.066;15.450;2023-11-22T02:47:49;97518.50;;;4.29;81.83
80321;BME280;69633;47.066;15.450;2023-11-22T02:50:16;97516.47;;;4.26;82.32
80321;BME280;69633;47.066;15.450;2023-11-22T02:52:42;97523.03;;;4.24;81.99
80321;BME280;69633;47.066;15.450;2023-11-22T02:55:08;97509.72;;;4.20;81.88
80321;BME280;69633;47.066;15.450;2023-11-22T02:57:39;97506.47;;;4.10;82.18
80321;BME280;69633;47.066;15.450;2023-11-22T03:00:07;97515.78;;;4.02;82.39
80321;BME280;69633;47.066;15.450;2023-11-22T03:02:33;97515.38;;;3.95;82.85
80321;BME280;69633;47.066;15.450;2023-11-22T03:04:59;97509.75;;;4.02;83.22
80321;BME280;69633;47.066;15.450;2023-11-22T03:07:25;97517.72;;;3.97;82.35
80321;BME280;69633;47.066;15.450;2023-11-22T03:09:51;97516.56;;;4.03;83.83
80321;BME280;69633;47.066;15.450;2023-11-22T03:12:18;97524.72;;;4.01;82.01
80321;BME280;69633;47.066;15.450;2023-11-22T03:14:48;97512.81;;;3.90;81.98
80321;BME280;69633;47.066;15.450;2023-11-22T03:17:16;97516.66;;;3.79;82.46
80321;BME280;69633;47.066;15.450;2023-11-22T03:19:43;97514.38;;;3.72;82.70
80321;BME280;69633;47.066;15.450;2023-11-22T03:22:10;97518.38;;;3.70;82.96
80321;BME280;69633;47.066;15.450;2023-11-22T03:24:36;97524.53;;;3.79;84.34
80321;BME280;69633;47.066;15.450;2023-11-22T03:27:03;97523.47;;;3.80;83.09
80321;BME280;69633;47.066;15.450;2023-11-22T03:29:29;97530.28;;;3.81;82.84
80321;BME280;69633;47.066;15.450;2023-11-22T03:31:54;97534.75;;;3.80;82.36
80321;BME280;69633;47.066;15.450;2023-11-22T03:34:20;97542.91;;;3.79;82.50
80321;BME280;69633;47.066;15.450;2023-11-22T03:36:46;97536.59;;;3.80;82.00
80321;BME280;69633;47.066;15.450;2023-11-22T03:39:12;97531.84;;;3.82;82.36
80321;BME280;69633;47.066;15.450;2023-11-22T03:41:40;97540.78;;;3.81;82.34
80321;BME280;69633;47.066;15.450;2023-11-22T03:44:05;97551.75;;;3.83;82.18
80321;BME280;69633;47.066;15.450;2023-11-22T03:46:34;97543.03;;;3.87;82.31
80321;BME280;69633;47.066;15.450;2023-11-22T03:49:05;97556.16;;;3.87;81.98
80321;BME280;69633;47.066;15.450;2023-11-22T03:51:32;97557.53;;;3.85;82.10
80321;BME280;69633;47.066;15.450;2023-11-22T03:53:58;97565.31;;;3.90;82.47
80321;BME280;69633;47.066;15.450;2023-11-22T03:56:24;97566.31;;;3.94;83.44
80321;BME280;69633;47.066;15.450;2023-11-22T03:58:50;97567.88;;;3.95;82.75
80321;BME280;69633;47.066;15.450;2023-11-22T04:01:15;97576.81;;;3.94;82.56
80321;BME280;69633;47.066;15.450;2023-11-22T04:03:42;97566.88;;;3.91;82.13
80321;BME280;69633;47.066;15.450;2023-11-22T04:06:08;97562.00;;;3.84;82.66
80321;BME280;69633;47.066;15.450;2023-11-22T04:08:33;97571.34;;;3.90;82.39
80321;BME280;69633;47.066;15.450;2023-11-22T04:10:58;97571.34;;;3.90;82.45
80321;BME280;69633;47.066;15.450;2023-11-22T04:13:24;97573.50;;;3.88;81.97
80321;BME280;69633;47.066;15.450;2023-11-22T04:15:52;97579.00;;;3.87;81.82
80321;BME280;69633;47.066;15.450;2023-11-22T04:18:18;97574.38;;;3.79;81.58
80321;BME280;69633;47.066;15.450;2023-11-22T04:20:43;97569.84;;;3.66;81.65
80321;BME280;69633;47.066;15.450;2023-11-22T04:23:09;97577.16;;;3.69;81.81
80321;BME280;69633;47.066;15.450;2023-11-22T04:25:36;97578.44;;;3.71;82.31
80321;BME280;69633;47.066;15.450;2023-11-22T04:28:02;97582.34;;;3.74;81.89
80321;BME280;69633;47.066;15.450;2023-11-22T04:30:28;97591.72;;;3.80;82.22
80321;BME280;69633;47.066;15.450;2023-11-22T04:32:54;97594.84;;;3.82;82.07
80321;BME280;69633;47.066;15.450;2023-11-22T04:35:19;97603.25;;;3.79;81.28
80321;BME280;69633;47.066;15.450;2023-11-22T04:37:45;97616.53;;;3.69;81.69
80321;BME280;69633;47.066;15.450;2023-11-22T04:40:12;97618.66;;;3.67;81.96
80321;BME280;69633;47.066;15.450;2023-11-22T04:42:40;97620.66;;;3.75;82.27
80321;BME280;69633;47.066;15.450;2023-11-22T04:45:06;97627.97;;;3.78;81.70
80321;BME280;69633;47.066;15.450;2023-11-22T04:47:31;97635.28;;;3.81;82.64
80321;BME280;69633;47.066;15.450;2023-11-22T04:49:57;97641.66;;;3.75;80.91
80321;BME280;69633;47.066;15.450;2023-11-22T04:52:23;97644.22;;;3.80;82.32
80321;BME280;69633;47.066;15.450;2023-11-22T04:54:48;97643.19;;;3.76;81.72
80321;BME280;69633;47.066;15.450;2023-11-22T04:57:13;97651.47;;;3.88;83.37
80321;BME280;69633;47.066;15.450;2023-11-22T04:59:39;97653.09;;;3.84;82.34
80321;BME280;69633;47.066;15.450;2023-11-22T05:02:06;97658.47;;;3.74;81.81
80321;BME280;69633;47.066;15.450;2023-11-22T05:04:32;97651.59;;;3.78;82.15
80321;BME280;69633;47.066;15.450;2023-11-22T05:06:58;97657.13;;;3.76;81.48
80321;BME280;69633;47.066;15.450;2023-11-22T05:09:24;97662.75;;;3.65;81.23
80321;BME280;69633;47.066;15.450;2023-11-22T05:11:49;97667.56;;;3.58;81.70
80321;BME280;69633;47.066;15.450;2023-11-22T05:14:17;97672.59;;;3.54;81.57
80321;BME280;69633;47.066;15.450;2023-11-22T05:16:42;97669.34;;;3.38;82.37
80321;BME280;69633;47.066;15.450;2023-11-22T05:19:08;97683.59;;;3.32;82.89
80321;BME280;69633;47.066;15.450;2023-11-22T05:21:34;97683.75;;;3.41;84.66
80321;BME280;69633;47.066;15.450;2023-11-22T05:23:59;97687.00;;;3.57;83.56
80321;BME280;69633;47.066;15.450;2023-11-22T05:26:25;97689.91;;;3.55;83.21
80321;BME280;69633;47.066;15.450;2023-11-22T05:28:51;97691.63;;;3.65;83.94
80321;BME280;69633;47.066;15.450;2023-11-22T05:31:19;97699.00;;;3.63;82.10
80321;BME280;69633;47.066;15.450;2023-11-22T05:33:45;97709.72;;;3.42;82.33
80321;BME280;69633;47.066;15.450;2023-11-22T05:36:11;97709.38;;;3.49;82.21
80321;BME280;69633;47.066;15.450;2023-11-22T05:38:36;97706.75;;;3.49;82.14
80321;BME280;69633;47.066;15.450;2023-11-22T05:41:03;97706.00;;;3.49;82.21
80321;BME280;69633;47.066;15.450;2023-11-22T05:43:29;97705.44;;;3.52;81.86
80321;BME280;69633;47.066;15.450;2023-11-22T05:45:54;97707.75;;;3.53;82.52
80321;BME280;69633;47.066;15.450;2023-11-22T05:48:20;97715.69;;;3.72;84.01
80321;BME280;69633;47.066;15.450;2023-11-22T05:50:47;97723.63;;;3.67;81.50
80321;BME280;69633;47.066;15.450;2023-11-22T05:53:13;97729.91;;;3.71;82.85
80321;BME280;69633;47.066;15.450;2023-11-22T05:55:45;97738.25;;;3.73;81.74
80321;BME280;69633;47.066;15.450;2023-11-22T05:58:13;97742.38;;;3.79;80.99
80321;BME280;69633;47.066;15.450;2023-11-22T06:00:47;97742.91;;;3.81;80.51
80321;BME280;69633;47.066;15.450;2023-11-22T06:03:13;97736.97;;;3.70;80.50
80321;BME280;69633;47.066;15.450;2023-11-22T06:05:39;97727.66;;;3.59;80.88
80321;BME280;69633;47.066;15.450;2023-11-22T06:08:05;97738.44;;;3.53;81.16
80321;BME280;69633;47.066;15.450;2023-11-22T06:10:31;97748.22;;;3.47;81.21
80321;BME280;69633;47.066;15.450;2023-11-22T06:12:56;97748.94;;;3.53;82.45
80321;BME280;69633;47.066;15.450;2023-11-22T06:15:22;97760.41;;;3.62;82.10
80321;BME280;69633;47.066;15.450;2023-11-22T06:17:49;97769.31;;;3.66;81.90
80321;BME280;69633;47.066;15.450;2023-11-22T06:20:15;97768.28;;;3.62;81.22
80321;BME280;69633;47.066;15.450;2023-11-22T06:22:41;97772.06;;;3.51;81.20
80321;BME280;69633;47.066;15.450;2023-11-22T06:25:11;97774.69;;;3.51;81.32
80321;BME280;69633;47.066;15.450;2023-11-22T06:27:38;97778.94;;;3.47;81.07
80321;BME280;69633;47.066;15.450;2023-11-22T06:30:04;97779.47;;;3.44;81.66
80321;BME280;69633;47.066;15.450;2023-11-22T06:32:32;97782.88;;;3.44;82.08
80321;BME280;69633;47.066;15.450;2023-11-22T06:34:57;97801.56;;;3.66;85.16
80321;BME280;69633;47.066;15.450;2023-11-22T06:37:23;97798.59;;;3.78;83.72
80321;BME280;69633;47.066;15.450;2023-11-22T06:39:48;97804.72;;;3.92;83.31
80321;BME280;69633;47.066;15.450;2023-11-22T06:42:14;97804.72;;;3.92;82.05
80321;BME280;69633;47.066;15.450;2023-11-22T06:44:39;97803.72;;;3.88;81.13
80321;BME280;69633;47.066;15.450;2023-11-22T06:47:05;97804.84;;;3.82;80.23
80321;BME280;69633;47.066;15.450;2023-11-22T06:49:32;97803.84;;;3.78;80.53
80321;BME280;69633;47.066;15.450;2023-11-22T06:51:58;97811.63;;;3.83;82.59
80321;BME280;69633;47.066;15.450;2023-11-22T06:54:24;97818.91;;;3.91;80.70
80321;BME280;69633;47.066;15.450;2023-11-22T06:56:49;97829.06;;;3.98;81.08
80321;BME280;69633;47.066;15.450;2023-11-22T06:59:17;97832.44;;;4.03;81.42
80321;BME280;69633;47.066;15.450;2023-11-22T07:01:42;97846.56;;;4.12;81.00
80321;BME280;69633;47.066;15.450;2023-11-22T07:04:08;97851.31;;;4.05;79.27
80321;BME280;69633;47.066;15.450;2023-11-22T07:06:34;97841.13;;;4.04;79.58
80321;BME280;69633;47.066;15.450;2023-11-22T07:09:01;97846.69;;;3.97;79.84
80321;BME280;69633;47.066;15.450;2023-11-22T07:11:27;97837.34;;;3.86;80.45
80321;BME280;69633;47.066;15.450;2023-11-22T07:13:56;97846.66;;;3.73;80.64
80321;BME280;69633;47.066;15.450;2023-11-22T07:16:23;97855.88;;;3.71;81.04
80321;BME280;69633;47.066;15.450;2023-11-22T07:18:50;97855.78;;;3.81;81.62
80321;BME280;69633;47.066;15.450;2023-11-22T07:21:15;97851.22;;;3.92;81.16
80321;BME280;69633;47.066;15.450;2023-11-22T07:23:42;97866.31;;;4.05;81.76
80321;BME280;69633;47.066;15.450;2023-11-22T07:26:08;97871.16;;;4.16;81.20
80321;BME280;69633;47.066;15.450;2023-11-22T07:28:33;97863.66;;;4.33;81.13
80321;BME280;69633;47.066;15.450;2023-11-22T07:31:01;97860.50;;;4.31;79.87
80321;BME280;69633;47.066;15.450;2023-11-22T07:33:27;97875.50;;;4.31;79.80
80321;BME280;69633;47.066;15.450;2023-11-22T07:35:53;97872.59;;;4.32;79.65
80321;BME280;69633;47.066;15.450;2023-11-22T07:38:19;97879.91;;;4.35;79.93
80321;BME280;69633;47.066;15.450;2023-11-22T07:40:45;97880.41;;;4.37;80.43
80321;BME280;69633;47.066;15.450;2023-11-22T07:43:10;97885.56;;;4.48;80.02
80321;BME280;69633;47.066;15.450;2023-11-22T07:45:36;97882.81;;;4.58;79.63
80321;BME280;69633;47.066;15.450;2023-11-22T07:48:04;97882.53;;;4.59;79.42
80321;BME280;69633;47.066;15.450;2023-11-22T07:50:29;97888.78;;;4.63;79.95
80321;BME280;69633;47.066;15.450;2023-11-22T07:52:55;97880.66;;;4.65;79.72
80321;BME280;69633;47.066;15.450;2023-11-22T07:55:21;97873.72;;;4.69;79.63
80321;BME280;69633;47.066;15.450;2023-11-22T07:57:50;97887.88;;;4.73;79.75
80321;BME280;69633;47.066;15.450;2023-11-22T08:00:17;97894.72;;;4.74;80.03
80321;BME280;69633;47.066;15.450;2023-11-22T08:02:45;97896.38;;;4.88;82.72
80321;BME280;69633;47.066;15.450;2023-11-22T08:05:11;97909.97;;;5.14;80.20
80321;BME280;69633;47.066;15.450;2023-11-22T08:07:40;97907.34;;;5.33;78.45
80321;BME280;69633;47.066;15.450;2023-11-22T08:10:10;97913.69;;;5.51;78.32
80321;BME280;69633;47.066;15.450;2023-11-22T08:12:43;97906.78;;;5.55;77.03
80321;BME280;69633;47.066;15.450;2023-11-22T08:15:10;97906.69;;;5.60;76.83
80321;BME280;69633;47.066;15.450;2023-11-22T08:17:39;97902.22;;;5.60;77.19
80321;BME280;69633;47.066;15.450;2023-11-22T08:20:05;97903.13;;;5.69;76.50
80321;BME280;69633;47.066;15.450;2023-11-22T08:22:34;97900.59;;;5.78;76.41
80321;BME280;69633;47.066;15.450;2023-11-22T08:25:04;97900.25;;;6.03;76.96
80321;BME280;69633;47.066;15.450;2023-11-22T08:27:30;97906.03;;;6.32;77.91
80321;BME280;69633;47.066;15.450;2023-11-22T08:29:56;97909.72;;;6.18;75.11
80321;BME280;69633;47.066;15.450;2023-11-22T08:32:22;97906.50;;;6.21;74.87
80321;BME280;69633;47.066;15.450;2023-11-22T08:34:50;97907.19;;;6.26;75.08
80321;BME280;69633;47.066;15.450;2023-11-22T08:37:17;97898.53;;;6.40;74.32
80321;BME280;69633;47.066;15.450;2023-11-22T08:39:42;97902.84;;;6.63;74.12
80321;BME280;69633;47.066;15.450;2023-11-22T08:42:08;97915.72;;;6.78;73.95
80321;BME280;69633;47.066;15.450;2023-11-22T08:44:36;97916.13;;;6.85;73.34
80321;BME280;69633;47.066;15.450;2023-11-22T08:47:02;97923.91;;;7.04;72.98
80321;BME280;69633;47.066;15.450;2023-11-22T08:49:29;97930.91;;;7.22;72.43
80321;BME280;69633;47.066;15.450;2023-11-22T08:51:55;97938.31;;;7.34;71.61
80321;BME280;69633;47.066;15.450;2023-11-22T08:54:21;97938.78;;;7.36;71.06
80321;BME280;69633;47.066;15.450;2023-11-22T08:56:47;97934.00;;;7.38;71.35
80321;BME280;69633;47.066;15.450;2023-11-22T08:59:12;97935.16;;;7.45;71.28
80321;BME280;69633;47.066;15.450;2023-11-22T09:01:38;97941.53;;;7.66;70.89
80321;BME280;69633;47.066;15.450;2023-11-22T09:04:04;97944.44;;;7.78;70.42
80321;BME280;69633;47.066;15.450;2023-11-22T09:06:30;97940.66;;;7.93;70.42
80321;BME280;69633;47.066;15.450;2023-11-22T09:08:55;97935.66;;;7.92;69.70
80321;BME280;69633;47.066;15.450;2023-11-22T09:11:22;97941.13;;;7.95;69.96
80321;BME280;69633;47.066;15.450;2023-11-22T09:13:48;97938.13;;;8.10;69.22
80321;BME280;69633;47.066;15.450;2023-11-22T09:16:15;97930.34;;;8.14;69.99
80321;BME280;69633;47.066;15.450;2023-11-22T09:18:42;97928.84;;;8.21;69.95
80321;BME280;69633;47.066;15.450;2023-11-22T09:21:08;97923.44;;;8.26;70.78
80321;BME280;69633;47.066;15.450;2023-11-22T09:23:35;97920.38;;;8.33;69.95
80321;BME280;69633;47.066;15.450;2023-11-22T09:26:02;97924.03;;;8.46;69.28
80321;BME280;69633;47.066;15.450;2023-11-22T09:28:28;97935.13;;;8.56;68.86
80321;BME280;69633;47.066;15.450;2023-11-22T09:30:53;97935.06;;;8.48;69.04
80321;BME280;69633;47.066;15.450;2023-11-22T09:33:26;97931.47;;;8.44;69.09
80321;BME280;69633;47.066;15.450;2023-11-22T09:35:52;97935.75;;;8.53;69.30
80321;BME280;69633;47.066;15.450;2023-11-22T09:38:18;97933.25;;;8.57;68.99
80321;BME280;69633;47.066;15.450;2023-11-22T09:40:45;97930.25;;;8.81;69.08
80321;BME280;69633;47.066;15.450;2023-11-22T09:43:11;97929.75;;;8.79;68.69
80321;BME280;69633;47.066;15.450;2023-11-22T09:45:37;97931.34;;;8.88;68.64
80321;BME280;69633;47.066;15.450;2023-11-22T09:48:18;97938.09;;;9.03;69.50
80321;BME280;69633;47.066;15.450;2023-11-22T09:51:04;97929.19;;;9.07;68.62
80321;BME280;69633;47.066;15.450;2023-11-22T09:53:34;97936.88;;;9.17;68.58
80321;BME280;69633;47.066;15.450;2023-11-22T09:56:02;97937.97;;;9.25;68.32
80321;BME280;69633;47.066;15.450;2023-11-22T09:58:33;97939.66;;;9.12;68.78
80321;BME280;69633;47.066;15.450;2023-11-22T10:01:02;97949.63;;;9.15;68.69
80321;BME280;69633;47.066;15.450;2023-11-22T10:03:30;97945.75;;;9.21;68.93
80321;BME280;69633;47.066;15.450;2023-11-22T10:05:56;97944.81;;;9.17;69.13
80321;BME280;69633;47.066;15.450;2023-11-22T10:08:23;97956.16;;;9.09;69.24
80321;BME280;69633;47.066;15.450;2023-11-22T10:10:49;97949.94;;;9.05;69.36
80321;BME280;69633;47.066;15.450;2023-11-22T10:13:17;97956.63;;;9.11;69.40
80321;BME280;69633;47.066;15.450;2023-11-22T10:15:47;97959.47;;;9.23;69.31
80321;BME280;69633;47.066;15.450;2023-11-22T10:18:13;97957.28;;;9.34;69.07
80321;BME280;69633;47.066;15.450;2023-11-22T10:20:40;97953.09;;;9.33;68.63
80321;BME280;69633;47.066;15.450;2023-11-22T10:25:44;97956.72;;;9.54;67.73
80321;BME280;69633;47.066;15.450;2023-11-22T10:28:11;97965.28;;;9.77;67.81
80321;BME280;69633;47.066;15.450;2023-11-22T10:30:37;97967.31;;;9.89;66.77
80321;BME280;69633;47.066;15.450;2023-11-22T10:33:03;97964.66;;;9.89;66.85
80321;BME280;69633;47.066;15.450;2023-11-22T10:35:29;97959.34;;;9.97;66.78
80321;BME280;69633;47.066;15.450;2023-11-22T10:37:55;97969.16;;;10.05;66.06
80321;BME280;69633;47.066;15.450;2023-11-22T10:40:20;97973.06;;;10.25;66.12
80321;BME280;69633;47.066;15.450;2023-11-22T10:42:48;97975.25;;;10.32;65.51
80321;BME280;69633;47.066;15.450;2023-11-22T10:45:17;97963.69;;;10.36;65.06
80321;BME280;69633;47.066;15.450;2023-11-22T10:47:43;97974.78;;;10.38;65.57
80321;BME280;69633;47.066;15.450;2023-11-22T10:50:09;97980.53;;;10.49;65.69
80321;BME280;69633;47.066;15.450;2023-11-22T10:52:36;97982.88;;;10.42;65.87
80321;BME280;69633;47.066;15.450;2023-11-22T10:55:03;97988.97;;;10.34;65.71
80321;BME280;69633;47.066;15.450;2023-11-22T10:57:40;97989.78;;;10.26;65.76
80321;BME280;69633;47.066;15.450;2023-11-22T11:00:07;97990.09;;;10.15;66.99
80321;BME280;69633;47.066;15.450;2023-11-22T11:02:59;97998.34;;;10.05;67.77
80321;BME280;69633;47.066;15.450;2023-11-22T11:05:28;98000.69;;;10.07;67.24
80321;BME280;69633;47.066;15.450;2023-11-22T11:08:07;97995.88;;;10.17;66.65
80321;BME280;69633;47.066;15.450;2023-11-22T11:10:44;98003.81;;;10.26;67.48
80321;BME280;69633;47.066;15.450;2023-11-22T11:13:11;98011.94;;;10.21;67.03
80321;BME280;69633;47.066;15.450;2023-11-22T11:15:41;98022.06;;;10.28;66.26
80321;BME280;69633;47.066;15.450;2023-11-22T11:18:10;98016.75;;;10.45;66.45
80321;BME280;69633;47.066;15.450;2023-11-22T11:20:54;98013.91;;;10.50;65.67
80321;BME280;69633;47.066;15.450;2023-11-22T11:23:22;98007.69;;;10.37;66.13
80321;BME280;69633;47.066;15.450;2023-11-22T11:25:50;98017.03;;;10.43;66.27
80321;BME280;69633;47.066;15.450;2023-11-22T11:28:16;98018.75;;;10.48;66.26
80321;BME280;69633;47.066;15.450;2023-11-22T11:30:48;98007.56;;;10.80;65.42
80321;BME280;69633;47.066;15.450;2023-11-22T11:33:33;98014.75;;;10.88;64.46
80321;BME280;69633;47.066;15.450;2023-11-22T11:36:01;98024.00;;;10.74;64.82
80321;BME280;69633;47.066;15.450;2023-11-22T11:38:34;98017.63;;;10.66;65.01
80321;BME280;69633;47.066;15.450;2023-11-22T11:41:11;98007.84;;;10.87;64.42
80321;BME280;69633;47.066;15.450;2023-11-22T11:43:43;98012.03;;;11.05;63.36
80321;BME280;69633;47.066;15.450;2023-11-22T11:46:11;98007.84;;;11.25;63.80
80321;BME280;69633;47.066;15.450;2023-11-22T11:48:37;97999.47;;;11.44;62.87
80321;BME280;69633;47.066;15.450;2023-11-22T11:51:02;97993.53;;;11.47;62.40
80321;BME280;69633;47.066;15.450;2023-11-22T11:53:32;97995.19;;;11.51;62.56
80321;BME280;69633;47.066;15.450;2023-11-22T11:55:58;98008.25;;;11.65;62.50
80321;BME280;69633;47.066;15.450;2023-11-22T11:58:24;98003.78;;;11.57;62.29
80321;BME280;69633;47.066;15.450;2023-11-22T12:00:54;97996.31;;;11.50;62.17
80321;BME280;69633;47.066;15.450;2023-11-22T12:03:20;97997.91;;;11.72;62.50
80321;BME280;69633;47.066;15.450;2023-11-22T12:05:47;98000.78;;;11.88;61.38
80321;BME280;69633;47.066;15.450;2023-11-22T12:08:18;97993.81;;;11.95;61.79
80321;BME280;69633;47.066;15.450;2023-11-22T12:10:55;97997.31;;;11.87;61.17
80321;BME280;69633;47.066;15.450;2023-11-22T12:13:34;98006.66;;;11.73;61.97
80321;BME280;69633;47.066;15.450;2023-11-22T12:16:17;98009.06;;;12.07;61.29
80321;BME280;69633;47.066;15.450;2023-11-22T12:18:44;98002.06;;;12.02;61.34
80321;BME280;69633;47.066;15.450;2023-11-22T12:21:11;97997.19;;;12.04;60.81
80321;BME280;69633;47.066;15.450;2023-11-22T12:23:41;97997.53;;;12.36;60.17
80321;BME280;69633;47.066;15.450;2023-11-22T12:26:17;97993.63;;;12.90;59.25
80321;BME280;69633;47.066;15.450;2023-11-22T12:28:46;98002.13;;;13.29;57.59
80321;BME280;69633;47.066;15.450;2023-11-22T12:31:13;97992.41;;;13.61;56.99
80321;BME280;69633;47.066;15.450;2023-11-22T12:33:40;98000.31;;;13.97;55.13
80321;BME280;69633;47.066;15.450;2023-11-22T12:36:07;98000.44;;;14.28;55.02
80321;BME280;69633;47.066;15.450;2023-11-22T12:38:42;98007.44;;;14.92;53.42
80321;BME280;69633;47.066;15.450;2023-11-22T12:41:07;98000.69;;;15.29;51.93
80321;BME280;69633;47.066;15.450;2023-11-22T12:43:34;98006.31;;;14.77;52.80
80321;BME280;69633;47.066;15.450;2023-11-22T12:46:09;98008.19;;;15.24;51.93
80321;BME280;69633;47.066;15.450;2023-11-22T12:48:41;98002.81;;;15.90;51.38
80321;BME280;69633;47.066;15.450;2023-11-22T12:51:17;98003.28;;;15.76;50.01
80321;BME280;69633;47.066;15.450;2023-11-22T12:53:46;98007.44;;;14.92;53.09
80321;BME280;69633;47.066;15.450;2023-11-22T12:56:13;97998.03;;;15.29;51.42
80321;BME280;69633;47.066;15.450;2023-11-22T12:58:38;97996.53;;;15.63;50.47
80321;BME280;69633;47.066;15.450;2023-11-22T13:01:04;97990.91;;;15.87;50.28